createdAt,value
2018-02-01T00:00:40.146Z,99.90
2018-02-01T00:03:09.965Z,99.90
2018-02-01T00:05:39.640Z,99.90
2018-02-01T00:08:08.886Z,99.90
2018-02-01T00:10:38.623Z,99.90
2018-02-01T00:13:08.541Z,99.90
2018-02-01T00:15:38.511Z,99.90
2018-02-01T00:18:08.474Z,99.90
2018-02-01T00:20:38.320Z,99.90
2018-02-01T00:23:07.486Z,99.90
2018-02-01T00:25:37.352Z,99.90
2018-02-01T00:28:07.243Z,99.90
2018-02-01T00:30:37.184Z,99.90
2018-02-01T00:33:07.042Z,99.90
2018-02-01T00:35:36.665Z,99.90
2018-02-01T00:38:06.417Z,99.90
2018-02-01T00:40:36.380Z,99.90
2018-02-01T00:43:06.350Z,99.90
2018-02-01T00:45:36.108Z,99.90
2018-02-01T00:48:09.862Z,99.90
2018-02-01T00:50:39.631Z,99.90
2018-02-01T00:53:09.546Z,99.90
2018-02-01T00:55:39.563Z,99.90
2018-02-01T00:58:09.407Z,99.90
2018-02-01T01:00:39.308Z,99.90
2018-02-01T01:03:09.133Z,99.90
2018-02-01T01:05:39.218Z,99.90
2018-02-01T01:08:09.029Z,99.90
2018-02-01T01:10:38.741Z,99.90
2018-02-01T01:13:08.758Z,99.90
2018-02-01T01:15:38.616Z,99.90
2018-02-01T01:18:08.282Z,99.90
2018-02-01T01:20:38.116Z,99.90
2018-02-01T01:23:07.807Z,99.90
2018-02-01T01:25:37.826Z,99.90
2018-02-01T01:28:07.844Z,99.90
2018-02-01T01:30:37.648Z,99.90
2018-02-01T01:33:07.671Z,99.90
2018-02-01T01:35:37.571Z,99.90
2018-02-01T01:38:08.255Z,99.90
2018-02-01T01:40:38.095Z,99.90
2018-02-01T01:43:07.948Z,99.90
2018-02-01T01:45:37.823Z,99.90
2018-02-01T01:48:07.575Z,99.90
2018-02-01T01:50:37.462Z,99.90
2018-02-01T01:53:08.227Z,99.90
2018-02-01T01:55:38.242Z,99.90
2018-02-01T01:58:08.145Z,99.90
2018-02-01T02:00:37.791Z,99.90
2018-02-01T02:03:07.679Z,99.90
2018-02-01T02:05:37.498Z,99.90
2018-02-01T02:08:07.508Z,99.90
2018-02-01T02:10:37.528Z,99.90
2018-02-01T02:13:07.412Z,99.90
2018-02-01T02:15:38.107Z,99.90
2018-02-01T02:18:08.093Z,99.90
2018-02-01T02:20:37.951Z,99.90
2018-02-01T02:23:07.855Z,99.90
2018-02-01T02:25:37.835Z,99.90
2018-02-01T02:28:07.798Z,99.90
2018-02-01T02:30:36.948Z,99.90
2018-02-01T02:33:06.955Z,99.90
2018-02-01T02:35:36.936Z,99.90
2018-02-01T02:38:07.699Z,99.90
2018-02-01T02:40:37.326Z,99.90
2018-02-01T02:43:07.345Z,99.90
2018-02-01T02:45:36.937Z,99.90
2018-02-01T02:48:07.685Z,99.90
2018-02-01T02:50:37.576Z,99.90
2018-02-01T02:53:07.400Z,99.90
2018-02-01T02:55:37.294Z,99.90
2018-02-01T02:58:07.147Z,99.90
2018-02-01T03:00:37.058Z,99.90
2018-02-01T03:03:06.976Z,99.90
2018-02-01T03:05:36.785Z,99.90
2018-02-01T03:08:05.784Z,99.90
2018-02-01T03:10:35.595Z,99.90
2018-02-01T03:13:05.618Z,99.90
2018-02-01T03:15:35.421Z,99.90
2018-02-01T03:18:05.442Z,99.90
2018-02-01T03:20:35.463Z,99.90
2018-02-01T03:23:05.366Z,99.90
2018-02-01T03:25:35.186Z,99.90
2018-02-01T03:28:05.051Z,99.90
2018-02-01T03:30:35.468Z,99.90
2018-02-01T03:33:05.003Z,99.90
2018-02-01T03:35:34.832Z,99.90
2018-02-01T03:38:04.060Z,99.90
2018-02-01T03:40:34.065Z,99.90
2018-02-01T03:43:03.984Z,99.90
2018-02-01T03:45:33.832Z,99.90
2018-02-01T03:48:03.747Z,99.90
2018-02-01T03:50:33.726Z,99.90
2018-02-01T03:53:03.436Z,99.90
2018-02-01T03:55:33.002Z,99.90
2018-02-01T03:58:02.764Z,99.90
2018-02-01T04:00:32.700Z,99.90
2018-02-01T04:03:02.624Z,99.90
2018-02-01T04:05:32.512Z,99.90
2018-02-01T04:08:02.530Z,99.90
2018-02-01T04:10:32.549Z,99.90
2018-02-01T04:13:02.564Z,99.90
2018-02-01T04:15:32.388Z,99.90
2018-02-01T04:18:02.494Z,99.90
2018-02-01T04:20:32.357Z,99.90
2018-02-01T04:23:03.861Z,99.90
2018-02-01T04:25:33.683Z,99.90
2018-02-01T04:28:03.536Z,99.90
2018-02-01T04:30:33.707Z,99.90
2018-02-01T04:33:03.512Z,99.90
2018-02-01T04:35:33.331Z,99.90
2018-02-01T04:38:02.528Z,99.90
2018-02-01T04:40:32.479Z,99.90
2018-02-01T04:43:02.051Z,99.90
2018-02-01T04:45:31.995Z,99.90
2018-02-01T04:48:01.914Z,99.90
2018-02-01T04:50:31.911Z,99.90
2018-02-01T04:53:01.941Z,99.90
2018-02-01T04:55:31.776Z,99.90
2018-02-01T04:58:01.477Z,99.90
2018-02-01T05:00:30.752Z,99.90
2018-02-01T05:02:59.903Z,99.90
2018-02-01T05:05:29.579Z,99.90
2018-02-01T05:07:59.573Z,99.90
2018-02-01T05:10:29.224Z,99.90
2018-02-01T05:12:59.577Z,99.90
2018-02-01T05:15:30.159Z,99.90
2018-02-01T05:17:59.728Z,99.90
2018-02-01T05:20:29.680Z,99.90
2018-02-01T05:22:59.610Z,99.90
2018-02-01T05:25:29.130Z,99.90
2018-02-01T05:27:58.896Z,99.90
2018-02-01T05:30:28.439Z,99.90
2018-02-01T05:32:58.339Z,99.90
2018-02-01T05:35:28.166Z,99.90
2018-02-01T05:37:58.024Z,99.90
2018-02-01T05:40:28.358Z,99.90
2018-02-01T05:42:58.285Z,99.90
2018-02-01T05:45:28.144Z,99.90
2018-02-01T05:47:59.958Z,99.90
2018-02-01T05:50:30.281Z,99.90
2018-02-01T05:53:00.148Z,99.90
2018-02-01T05:55:30.036Z,99.90
2018-02-01T05:57:59.866Z,99.90
2018-02-01T06:00:29.834Z,99.90
2018-02-01T06:02:59.386Z,99.90
2018-02-01T06:05:29.870Z,99.90
2018-02-01T06:07:59.887Z,99.90
2018-02-01T06:10:29.905Z,99.90
2018-02-01T06:12:59.614Z,99.90
2018-02-01T06:15:29.668Z,99.90
2018-02-01T06:17:59.523Z,99.90
2018-02-01T06:20:30.157Z,99.90
2018-02-01T06:23:02.682Z,99.90
2018-02-01T06:25:32.784Z,99.90
2018-02-01T06:28:02.681Z,99.90
2018-02-01T06:30:32.336Z,99.90
2018-02-01T06:33:02.240Z,99.90
2018-02-01T06:35:32.055Z,99.90
2018-02-01T06:38:02.093Z,99.90
2018-02-01T06:40:32.990Z,99.90
2018-02-01T06:43:02.975Z,99.90
2018-02-01T06:45:33.151Z,99.90
2018-02-01T06:48:03.037Z,99.90
2018-02-01T06:50:32.944Z,99.90
2018-02-01T06:53:02.895Z,99.90
2018-02-01T06:55:32.884Z,99.90
2018-02-01T06:58:02.799Z,99.90
2018-02-01T07:00:38.346Z,99.90
2018-02-01T07:03:08.220Z,99.90
2018-02-01T07:05:38.103Z,99.90
2018-02-01T07:08:07.954Z,99.90
2018-02-01T07:10:38.345Z,99.90
2018-02-01T07:13:08.332Z,99.90
2018-02-01T07:15:38.352Z,99.90
2018-02-01T07:18:08.183Z,99.90
2018-02-01T07:20:37.574Z,99.90
2018-02-01T07:23:06.960Z,99.90
2018-02-01T07:25:36.776Z,99.90
2018-02-01T07:28:06.608Z,99.90
2018-02-01T07:30:36.409Z,99.90
2018-02-01T07:33:06.270Z,99.90
2018-02-01T07:35:37.021Z,99.90
2018-02-01T07:38:07.041Z,99.90
2018-02-01T07:40:36.237Z,99.90
2018-02-01T07:43:06.813Z,99.90
2018-02-01T07:48:38.188Z,99.90
2018-02-01T07:51:08.836Z,99.90
2018-02-01T07:53:38.627Z,99.90
2018-02-01T07:56:09.359Z,99.90
2018-02-01T07:58:39.245Z,99.90
2018-02-01T08:01:09.234Z,99.90
2018-02-01T08:03:39.191Z,99.90
2018-02-01T08:06:08.857Z,99.90
2018-02-01T08:08:38.716Z,99.90
2018-02-01T08:11:08.687Z,99.90
2018-02-01T08:13:38.604Z,99.90
2018-02-01T08:16:08.427Z,99.90
2018-02-01T08:18:41.031Z,99.90
2018-02-01T08:21:10.756Z,99.90
2018-02-01T08:23:41.655Z,99.90
2018-02-01T08:26:11.489Z,99.90
2018-02-01T08:28:41.380Z,99.90
2018-02-01T08:31:11.243Z,99.90
2018-02-01T08:33:41.103Z,99.90
2018-02-01T08:36:10.939Z,99.90
2018-02-01T08:38:40.808Z,99.90
2018-02-01T08:41:11.422Z,99.90
2018-02-01T08:43:42.071Z,99.90
2018-02-01T08:46:12.495Z,99.90
2018-02-01T08:48:43.150Z,99.90
2018-02-01T08:51:12.810Z,99.90
2018-02-01T08:53:42.570Z,99.90
2018-02-01T08:56:12.280Z,99.90
2018-02-01T08:58:42.298Z,99.90
2018-02-01T09:01:12.111Z,99.90
2018-02-01T09:03:41.952Z,99.90
2018-02-01T09:06:11.974Z,99.90
2018-02-01T09:08:41.786Z,99.90
2018-02-01T09:11:11.791Z,99.90
2018-02-01T09:13:41.790Z,99.90
2018-02-01T09:16:11.624Z,99.90
2018-02-01T09:18:41.512Z,99.90
2018-02-01T09:21:11.448Z,99.90
2018-02-01T09:23:41.111Z,99.90
2018-02-01T09:26:11.527Z,99.90
2018-02-01T09:28:41.616Z,99.90
2018-02-01T09:31:11.348Z,99.90
2018-02-01T09:33:41.204Z,99.90
2018-02-01T09:36:11.090Z,99.90
2018-02-01T09:38:41.279Z,99.90
2018-02-01T09:41:11.374Z,99.90
2018-02-01T09:43:41.076Z,99.90
2018-02-01T09:46:09.984Z,99.90
2018-02-01T09:48:39.984Z,99.90
2018-02-01T09:51:09.521Z,99.90
2018-02-01T09:53:39.514Z,99.90
2018-02-01T09:56:09.173Z,99.90
2018-02-01T09:58:39.596Z,99.90
2018-02-01T10:01:09.360Z,99.90
2018-02-01T10:03:40.094Z,99.90
2018-02-01T10:06:10.056Z,99.90
2018-02-01T10:08:39.913Z,99.90
2018-02-01T10:11:09.883Z,99.90
2018-02-01T10:13:39.751Z,99.90
2018-02-01T10:16:09.157Z,99.90
2018-02-01T10:18:38.867Z,99.90
2018-02-01T10:21:08.785Z,99.90
2018-02-01T10:23:38.802Z,99.90
2018-02-01T10:26:08.620Z,99.90
2018-02-01T10:28:38.556Z,99.90
2018-02-01T10:31:08.553Z,99.90
2018-02-01T10:33:38.155Z,99.90
2018-02-01T10:36:07.967Z,99.90
2018-02-01T10:38:37.795Z,99.90
2018-02-01T10:41:07.795Z,99.90
2018-02-01T10:43:37.616Z,99.90
2018-02-01T10:46:07.554Z,99.90
2018-02-01T10:48:37.476Z,99.90
2018-02-01T10:51:07.319Z,99.90
2018-02-01T10:53:37.165Z,99.90
2018-02-01T10:56:07.004Z,99.90
2018-02-01T10:58:36.652Z,99.90
2018-02-01T11:01:06.479Z,99.90
2018-02-01T11:03:37.080Z,99.90
2018-02-01T11:06:07.279Z,99.90
2018-02-01T11:08:37.108Z,99.90
2018-02-01T11:11:07.596Z,99.90
2018-02-01T11:13:37.614Z,99.90
2018-02-01T11:16:06.811Z,99.90
2018-02-01T11:18:36.540Z,99.90
2018-02-01T11:21:06.251Z,99.90
2018-02-01T11:23:36.198Z,99.90
2018-02-01T11:26:06.503Z,99.90
2018-02-01T11:28:36.367Z,99.90
2018-02-01T11:31:06.181Z,99.90
2018-02-01T11:33:36.050Z,99.90
2018-02-01T11:36:06.416Z,99.90
2018-02-01T11:38:36.724Z,99.90
2018-02-01T11:41:06.622Z,99.90
2018-02-01T11:43:36.497Z,99.90
2018-02-01T11:46:06.331Z,99.90
2018-02-01T11:48:36.145Z,99.90
2018-02-01T11:51:06.164Z,99.90
2018-02-01T11:53:36.042Z,99.90
2018-02-01T11:56:06.083Z,99.90
2018-02-01T11:58:35.948Z,99.90
2018-02-01T12:01:05.886Z,99.90
2018-02-01T12:03:35.807Z,99.90
2018-02-01T12:06:05.444Z,99.90
2018-02-01T12:08:34.954Z,99.90
2018-02-01T12:11:04.770Z,99.90
2018-02-01T12:13:34.846Z,99.90
2018-02-01T12:16:04.398Z,99.90
2018-02-01T12:18:34.876Z,93.00
2018-02-01T12:21:04.456Z,93.00
2018-02-01T12:23:33.991Z,85.20
2018-02-01T12:26:05.259Z,77.90
2018-02-01T12:28:34.794Z,71.10
2018-02-01T12:31:04.391Z,67.40
2018-02-01T12:33:33.999Z,67.80
2018-02-01T12:36:03.774Z,68.80
2018-02-01T12:38:33.519Z,66.70
2018-02-01T12:41:03.332Z,64.70
2018-02-01T12:43:32.972Z,66.70
2018-02-01T12:46:02.657Z,66.00
2018-02-01T12:48:32.504Z,66.50
2018-02-01T12:51:02.836Z,63.50
2018-02-01T12:53:33.207Z,63.80
2018-02-01T12:56:02.931Z,63.60
2018-02-01T12:58:32.580Z,60.00
2018-02-01T13:01:02.351Z,59.20
2018-02-01T13:03:32.063Z,60.40
2018-02-01T13:06:01.790Z,60.20
2018-02-01T13:08:32.131Z,58.20
2018-02-01T13:11:01.049Z,58.50
2018-02-01T13:13:30.632Z,60.10
2018-02-01T13:16:00.538Z,60.70
2018-02-01T13:18:30.083Z,61.90
2018-02-01T13:20:59.780Z,64.00
2018-02-01T13:23:29.469Z,64.50
2018-02-01T13:25:58.715Z,61.50
2018-02-01T13:28:29.106Z,62.20
2018-02-01T13:30:58.979Z,62.20
2018-02-01T13:33:28.520Z,62.80
2018-02-01T13:35:58.107Z,64.20
2018-02-01T13:38:27.841Z,64.50
2018-02-01T13:40:57.549Z,63.30
2018-02-01T13:43:27.199Z,63.00
2018-02-01T13:45:59.229Z,60.50
2018-02-01T13:48:28.631Z,60.50
2018-02-01T13:50:58.889Z,59.60
2018-02-01T13:53:28.461Z,57.80
2018-02-01T13:55:58.173Z,59.80
2018-02-01T13:58:27.755Z,61.20
2018-02-01T14:00:57.415Z,61.90
2018-02-01T14:03:27.093Z,59.80
2018-02-01T14:05:56.811Z,59.50
2018-02-01T14:08:26.561Z,59.20
2018-02-01T14:10:56.941Z,60.30
2018-02-01T14:13:26.661Z,60.30
2018-02-01T14:15:56.199Z,58.10
2018-02-01T14:18:27.267Z,58.60
2018-02-01T14:20:57.575Z,59.00
2018-02-01T14:23:27.924Z,62.60
2018-02-01T14:25:57.675Z,62.60
2018-02-01T14:28:27.481Z,64.50
2018-02-01T14:30:57.040Z,63.80
2018-02-01T14:33:27.412Z,65.90
2018-02-01T14:35:57.167Z,65.90
2018-02-01T14:38:27.068Z,69.10
2018-02-01T14:40:56.850Z,72.60
2018-02-01T14:43:26.438Z,73.30
2018-02-01T14:45:56.166Z,76.20
2018-02-01T14:48:25.913Z,81.10
2018-02-01T14:50:55.597Z,80.80
2018-02-01T14:53:25.300Z,83.60
2018-02-01T14:55:55.366Z,86.60
2018-02-01T14:58:24.984Z,89.00
2018-02-01T15:00:54.764Z,91.10
2018-02-01T15:03:24.291Z,92.30
2018-02-01T15:05:54.633Z,94.00
2018-02-01T15:08:25.117Z,95.80
2018-02-01T15:10:54.681Z,95.80
2018-02-01T15:13:24.246Z,96.20
2018-02-01T15:15:53.872Z,98.20
2018-02-01T15:18:23.455Z,99.90
2018-02-01T15:20:53.231Z,99.90
2018-02-01T15:23:23.658Z,99.90
2018-02-01T15:25:54.888Z,99.90
2018-02-01T15:28:25.707Z,99.90
2018-02-01T15:30:56.730Z,99.90
2018-02-01T15:33:27.248Z,99.90
2018-02-01T15:35:59.052Z,99.90
2018-02-01T15:38:29.451Z,99.90
2018-02-01T15:40:59.117Z,99.90
2018-02-01T15:43:29.573Z,99.90
2018-02-01T15:45:59.337Z,99.90
2018-02-01T15:48:28.305Z,99.90
2018-02-01T15:50:57.959Z,99.90
2018-02-01T15:53:27.531Z,99.90
2018-02-01T15:55:57.068Z,99.90
2018-02-01T15:58:26.644Z,99.90
2018-02-01T16:00:56.376Z,99.90
2018-02-01T16:03:26.017Z,99.90
2018-02-01T16:05:56.352Z,99.90
2018-02-01T16:08:26.732Z,99.90
2018-02-01T16:10:56.641Z,99.90
2018-02-01T16:13:26.218Z,99.90
2018-02-01T16:15:55.739Z,99.90
2018-02-01T16:18:25.463Z,99.90
2018-02-01T16:20:55.177Z,99.90
2018-02-01T16:23:24.890Z,99.90
2018-02-01T16:25:54.438Z,99.90
2018-02-01T16:28:23.973Z,99.90
2018-02-01T16:30:53.716Z,99.90
2018-02-01T16:33:23.416Z,99.90
2018-02-01T16:35:52.992Z,99.90
2018-02-01T16:38:23.281Z,99.90
2018-02-01T16:40:52.899Z,99.90
2018-02-01T16:43:22.206Z,99.90
2018-02-01T16:45:52.655Z,99.90
2018-02-01T16:48:23.049Z,99.90
2018-02-01T16:50:52.726Z,99.90
2018-02-01T16:53:22.439Z,99.90
2018-02-01T16:55:52.446Z,99.90
2018-02-01T16:58:23.043Z,99.90
2018-02-01T17:00:52.644Z,99.90
2018-02-01T17:03:23.014Z,99.90
2018-02-01T17:05:53.496Z,99.90
2018-02-01T17:08:23.480Z,99.90
2018-02-01T17:10:53.297Z,99.90
2018-02-01T17:13:23.007Z,99.90
2018-02-01T17:15:52.568Z,99.90
2018-02-01T17:18:22.958Z,99.90
2018-02-01T17:20:52.518Z,99.90
2018-02-01T17:23:22.207Z,99.90
2018-02-01T17:25:52.661Z,99.90
2018-02-01T17:28:22.900Z,99.90
2018-02-01T17:30:52.500Z,99.90
2018-02-01T17:33:22.047Z,99.90
2018-02-01T17:35:51.925Z,99.90
2018-02-01T17:38:21.509Z,99.90
2018-02-01T17:40:51.108Z,99.90
2018-02-01T17:43:21.472Z,99.90
2018-02-01T17:45:51.062Z,99.90
2018-02-01T17:48:20.669Z,99.90
2018-02-01T17:50:50.206Z,99.90
2018-02-01T17:53:19.806Z,99.90
2018-02-01T17:55:49.335Z,99.90
2018-02-01T17:58:18.923Z,99.90
2018-02-01T18:00:48.451Z,99.90
2018-02-01T18:03:18.440Z,99.90
2018-02-01T18:05:47.967Z,99.90
2018-02-01T18:08:21.577Z,99.90
2018-02-01T18:10:52.906Z,99.90
2018-02-01T18:13:23.252Z,99.90
2018-02-01T18:15:52.786Z,99.90
2018-02-01T18:18:23.148Z,99.90
2018-02-01T18:20:52.066Z,99.90
2018-02-01T18:23:21.620Z,99.90
2018-02-01T18:25:51.192Z,99.90
2018-02-01T18:28:20.782Z,99.90
2018-02-01T18:30:50.404Z,99.90
2018-02-01T18:33:19.949Z,99.90
2018-02-01T18:35:49.507Z,99.90
2018-02-01T18:38:20.035Z,99.90
2018-02-01T18:40:49.596Z,99.90
2018-02-01T18:43:19.099Z,99.90
2018-02-01T18:45:49.499Z,99.90
2018-02-01T18:48:19.080Z,99.90
2018-02-01T18:50:48.773Z,99.90
2018-02-01T18:53:18.380Z,99.90
2018-02-01T18:55:47.970Z,99.90
2018-02-01T18:58:17.556Z,99.90
2018-02-01T19:00:47.717Z,99.90
2018-02-01T19:03:17.736Z,99.90
2018-02-01T19:05:47.447Z,99.90
2018-02-01T19:08:17.156Z,99.90
2018-02-01T19:10:46.720Z,99.90
2018-02-01T19:13:16.704Z,99.90
2018-02-01T19:15:45.676Z,99.90
2018-02-01T19:18:15.245Z,99.90
2018-02-01T19:20:45.605Z,99.90
2018-02-01T19:23:15.818Z,99.90
2018-02-01T19:25:45.344Z,99.90
2018-02-01T19:28:14.943Z,99.90
2018-02-01T19:30:44.575Z,99.90
2018-02-01T19:33:14.907Z,99.90
2018-02-01T19:35:44.623Z,99.90
2018-02-01T19:38:16.113Z,99.90
2018-02-01T19:40:45.663Z,99.90
2018-02-01T19:43:15.224Z,99.90
2018-02-01T19:45:44.836Z,99.90
2018-02-01T19:48:15.568Z,99.90
2018-02-01T19:50:45.306Z,99.90
2018-02-01T19:53:15.130Z,99.90
2018-02-01T19:55:45.470Z,99.90
2018-02-01T19:58:15.050Z,99.90
2018-02-01T20:00:44.702Z,99.90
2018-02-01T20:03:14.247Z,99.90
2018-02-01T20:05:43.832Z,99.90
2018-02-01T20:08:13.376Z,99.90
2018-02-01T20:10:43.562Z,99.90
2018-02-01T20:13:13.907Z,99.90
2018-02-01T20:15:43.474Z,99.90
2018-02-01T20:18:12.820Z,99.90
2018-02-01T20:20:42.389Z,99.90
2018-02-01T20:23:12.675Z,99.90
2018-02-01T20:25:42.231Z,99.90
2018-02-01T20:28:12.564Z,99.90
2018-02-01T20:30:42.209Z,99.90
2018-02-01T20:33:11.822Z,99.90
2018-02-01T20:35:41.384Z,99.90
2018-02-01T20:38:11.718Z,99.90
2018-02-01T20:40:41.289Z,99.90
2018-02-01T20:43:10.838Z,99.90
2018-02-01T20:45:40.421Z,99.90
2018-02-01T20:48:10.910Z,99.90
2018-02-01T20:50:40.618Z,99.90
2018-02-01T20:53:10.862Z,99.90
2018-02-01T20:55:40.479Z,99.90
2018-02-01T20:58:10.036Z,99.90
2018-02-01T21:00:39.705Z,99.90
2018-02-01T21:03:10.000Z,99.90
2018-02-01T21:05:38.920Z,99.90
2018-02-01T21:08:09.271Z,99.90
2018-02-01T21:10:38.854Z,99.90
2018-02-01T21:13:09.982Z,99.90
2018-02-01T21:15:39.432Z,99.90
2018-02-01T21:18:08.975Z,99.90
2018-02-01T21:20:38.558Z,99.90
2018-02-01T21:23:07.847Z,99.90
2018-02-01T21:25:37.430Z,99.90
2018-02-01T21:28:08.219Z,99.90
2018-02-01T21:30:37.779Z,99.90
2018-02-01T21:33:08.108Z,99.90
2018-02-01T21:35:37.714Z,99.90
2018-02-01T21:38:08.316Z,99.90
2018-02-01T21:40:38.022Z,99.90
2018-02-01T21:43:07.603Z,99.90
2018-02-01T21:45:37.163Z,99.90
2018-02-01T21:48:07.472Z,99.90
2018-02-01T21:50:37.048Z,99.90
2018-02-01T21:53:06.681Z,99.90
2018-02-01T21:55:36.544Z,99.90
2018-02-01T21:58:07.182Z,99.90
2018-02-01T22:00:37.575Z,99.90
2018-02-01T22:03:07.418Z,99.90
2018-02-01T22:05:38.013Z,99.90
2018-02-01T22:08:07.600Z,99.90
2018-02-01T22:10:37.528Z,99.90
2018-02-01T22:13:07.508Z,99.90
2018-02-01T22:15:37.421Z,99.90
2018-02-01T22:18:07.441Z,99.90
2018-02-01T22:20:37.284Z,99.90
2018-02-01T22:23:07.272Z,99.90
2018-02-01T22:25:37.122Z,99.90
2018-02-01T22:28:07.101Z,99.90
2018-02-01T22:30:36.680Z,99.90
2018-02-01T22:33:06.243Z,99.90
2018-02-01T22:35:36.124Z,99.90
2018-02-01T22:38:06.446Z,99.90
2018-02-01T22:40:37.117Z,99.90
2018-02-01T22:43:06.964Z,99.90
2018-02-01T22:45:36.813Z,99.90
2018-02-01T22:48:07.959Z,99.90
2018-02-01T22:50:37.768Z,99.90
2018-02-01T22:53:07.716Z,99.90
2018-02-01T22:55:37.703Z,99.90
2018-02-01T22:58:07.720Z,99.90
2018-02-01T23:00:37.636Z,99.90
2018-02-01T23:03:07.347Z,99.90
2018-02-01T23:05:37.192Z,99.90
2018-02-01T23:08:07.176Z,99.90
2018-02-01T23:10:37.197Z,99.90
2018-02-01T23:13:07.117Z,99.90
2018-02-01T23:15:36.657Z,99.90
2018-02-01T23:18:06.644Z,99.90
2018-02-01T23:20:36.555Z,99.90
2018-02-01T23:23:06.573Z,99.90
2018-02-01T23:25:36.502Z,99.90
2018-02-01T23:28:06.359Z,99.90
2018-02-01T23:30:36.195Z,99.90
2018-02-01T23:33:06.795Z,99.90
2018-02-01T23:35:36.625Z,99.90
2018-02-01T23:38:07.298Z,99.90
2018-02-01T23:40:37.124Z,99.90
2018-02-01T23:43:07.228Z,99.90
2018-02-01T23:45:37.035Z,99.90
2018-02-01T23:48:07.058Z,99.90
2018-02-01T23:50:37.004Z,99.90
2018-02-01T23:53:06.917Z,99.90
2018-02-01T23:55:36.904Z,99.90
2018-02-01T23:58:06.921Z,99.90
